Dallas, TX (75205)

3:34 AM CST on February 13, 2016 (GMT -0600)
AstroGlow | | Change Station
CLOSE
Current Station
Personal Weather Station
Location: Dallas, TX
Elevation: 554 ft
Nearby Weather Stations
Active Advisory: Flood Warning

Elev 554 ft 32.84 °N, 96.79 °W | Updated 5 seconds ago

Clear
Clear
45.8 °F
Feels Like 46 °F
N
1.0
Wind Variable Wind from NNW
Gusts 2.0 mph

Today
High -- | Low -- °F
--% Chance of Precip.
Yesterday
High -- | Low -- °F
Precip. -- in
Pressure 30.38 in
Visibility 10.0 miles
Clouds Few 3000 ft
Windchill 46 °F
Dew Point 32 °F
Humidity 58%
Rainfall 0.00 in
Snow Depth Not available.
7:12 AM 6:10 PM
Waxing Crescent, 29% visible
METAR KDAL 130853Z 03007KT 10SM FEW030 08/M01 A3038 RMK AO2 SLP286 FU FEW030 T00831011 50008
Pressure 30.38 in
Visibility 10.0 miles
Clouds Few 3000 ft
Windchill 46 °F
Dew Point 32 °F
Humidity 58%
Rainfall 0.00 in
Snow Depth Not available.
7:12 AM 6:10 PM
Waxing Crescent, 29% visible
METAR KDAL 130853Z 03007KT 10SM FEW030 08/M01 A3038 RMK AO2 SLP286 FU FEW030 T00831011 50008

10-Day Weather Forecast

Almanac

Astronomy

Feb. 13, 2016 Rise Set
Actual Time
Civil Twilight
Nautical Twilight
Astronomical Twilight
Moon
Length of Visible Light
Length of Day
Tomorrow will be .
, % of the Moon is Illuminated

Today's Extremes

State Highs State Lows

Community

WunderPhotos

Upload Photos

1,892,536 photos uploaded!

WunderBlog® & News

Nearby

Air Quality

  Air Quality AQ Index Pollutant
Not available.

Snow Depth

Station Depth Elevation

Earthquake Activity

City Distance Mag. Time & Date
Minimum magnitude displayed is 2.5.

Coastal Water Temperatures

Place Temperature

Stations

Nearby Weather Stations

Station Location Temp. Windchill Dew Point Humidity Wind Precip. Elev Updated Type
                   

Watches & Warnings

Flood Warning
Issued: 7:35 PM CST Feb. 12, 2016 – National Weather Service

The Flood Warning continues for
the Elm Fork Trinity River near Carrollton.
* At 0715 PM Friday the stage was 8.34 feet.
* Flood stage is 8 feet.
* Minor flooding is occurring and minor flooding is forecast.
* Forecast... the river will remain steady for the next several days.
* At 8 feet, minor flooding will occur downstream from the gage.


Lat... Lon 3300 9700 3287 9699 3287 9687 3300 9688